sensor_id;sensor_type;location;lat;lon;timestamp;pressure;altitude;pressure_sealevel;temperature;humidity
12146;BME280;6136;47.032;15.398;2023-01-27T00:01:39;97536.88;;;0.67;100.00
12146;BME280;6136;47.032;15.398;2023-01-27T00:04:07;97527.28;;;0.69;100.00
12146;BME280;6136;47.032;15.398;2023-01-27T00:06:35;97530.78;;;0.68;100.00
12146;BME280;6136;47.032;15.398;2023-01-27T00:09:05;97533.31;;;0.71;100.00
12146;BME280;6136;47.032;15.398;2023-01-27T00:11:33;97532.63;;;0.64;100.00
12146;BME280;6136;47.032;15.398;2023-01-27T00:14:19;97528.31;;;0.62;100.00
12146;BME280;6136;47.032;15.398;2023-01-27T00:16:47;97532.63;;;0.63;100.00
12146;BME280;6136;47.032;15.398;2023-01-27T00:19:15;97531.00;;;0.59;100.00
12146;BME280;6136;47.032;15.398;2023-01-27T00:21:46;97524.81;;;0.63;100.00
12146;BME280;6136;47.032;15.398;2023-01-27T00:24:33;97521.34;;;0.62;100.00
12146;BME280;6136;47.032;15.398;2023-01-27T00:27:06;97521.38;;;0.61;100.00
12146;BME280;6136;47.032;15.398;2023-01-27T00:29:38;97517.16;;;0.57;100.00
12146;BME280;6136;47.032;15.398;2023-01-27T00:32:06;97519.91;;;0.51;100.00
12146;BME280;6136;47.032;15.398;2023-01-27T00:34:52;97521.47;;;0.58;100.00
12146;BME280;6136;47.032;15.398;2023-01-27T00:37:20;97518.75;;;0.62;100.00
12146;BME280;6136;47.032;15.398;2023-01-27T00:39:49;97523.97;;;0.62;100.00
12146;BME280;6136;47.032;15.398;2023-01-27T00:42:17;97523.91;;;0.65;100.00
12146;BME280;6136;47.032;15.398;2023-01-27T00:44:45;97519.56;;;0.64;100.00
12146;BME280;6136;47.032;15.398;2023-01-27T00:47:27;97516.16;;;0.61;100.00
12146;BME280;6136;47.032;15.398;2023-01-27T00:49:55;97520.50;;;0.62;100.00
12146;BME280;6136;47.032;15.398;2023-01-27T00:52:24;97521.38;;;0.61;100.00
12146;BME280;6136;47.032;15.398;2023-01-27T00:54:53;97517.19;;;0.54;100.00
12146;BME280;6136;47.032;15.398;2023-01-27T00:57:21;97524.97;;;0.57;100.00
12146;BME280;6136;47.032;15.398;2023-01-27T00:59:50;97526.00;;;0.50;100.00
12146;BME280;6136;47.032;15.398;2023-01-27T01:02:18;97529.47;;;0.50;100.00
12146;BME280;6136;47.032;15.398;2023-01-27T01:04:46;97532.03;;;0.52;100.00
12146;BME280;6136;47.032;15.398;2023-01-27T01:07:14;97525.13;;;0.51;100.00
12146;BME280;6136;47.032;15.398;2023-01-27T01:09:42;97527.72;;;0.51;100.00
12146;BME280;6136;47.032;15.398;2023-01-27T01:12:12;97526.94;;;0.46;100.00
12146;BME280;6136;47.032;15.398;2023-01-27T01:14:40;97529.72;;;0.38;100.00
12146;BME280;6136;47.032;15.398;2023-01-27T01:17:08;97529.00;;;0.33;100.00
12146;BME280;6136;47.032;15.398;2023-01-27T01:19:36;97528.97;;;0.34;100.00
12146;BME280;6136;47.032;15.398;2023-01-27T01:22:04;97522.78;;;0.38;100.00
12146;BME280;6136;47.032;15.398;2023-01-27T01:24:33;97523.75;;;0.34;100.00
12146;BME280;6136;47.032;15.398;2023-01-27T01:27:01;97518.44;;;0.37;100.00
12146;BME280;6136;47.032;15.398;2023-01-27T01:29:31;97527.25;;;0.33;100.00
12146;BME280;6136;47.032;15.398;2023-01-27T01:31:59;97517.72;;;0.31;100.00
12146;BME280;6136;47.032;15.398;2023-01-27T01:34:30;97518.44;;;0.37;100.00
12146;BME280;6136;47.032;15.398;2023-01-27T01:36:58;97529.78;;;0.36;100.00
12146;BME280;6136;47.032;15.398;2023-01-27T01:39:26;97520.22;;;0.37;100.00
12146;BME280;6136;47.032;15.398;2023-01-27T01:41:55;97517.63;;;0.37;100.00
12146;BME280;6136;47.032;15.398;2023-01-27T01:44:24;97520.16;;;0.38;100.00
12146;BME280;6136;47.032;15.398;2023-01-27T01:46:54;97525.38;;;0.38;100.00
12146;BME280;6136;47.032;15.398;2023-01-27T01:49:25;97514.94;;;0.38;100.00
12146;BME280;6136;47.032;15.398;2023-01-27T01:51:57;97516.66;;;0.41;100.00
12146;BME280;6136;47.032;15.398;2023-01-27T01:54:28;97509.69;;;0.42;100.00
12146;BME280;6136;47.032;15.398;2023-01-27T01:57:02;97509.69;;;0.42;100.00
12146;BME280;6136;47.032;15.398;2023-01-27T01:59:36;97511.53;;;0.36;100.00
12146;BME280;6136;47.032;15.398;2023-01-27T02:02:09;97503.66;;;0.38;100.00
12146;BME280;6136;47.032;15.398;2023-01-27T02:04:42;97512.25;;;0.43;100.00
12146;BME280;6136;47.032;15.398;2023-01-27T02:07:17;97500.13;;;0.42;100.00
12146;BME280;6136;47.032;15.398;2023-01-27T02:09:49;97499.41;;;0.35;100.00
12146;BME280;6136;47.032;15.398;2023-01-27T02:12:18;97505.47;;;0.36;100.00
12146;BME280;6136;47.032;15.398;2023-01-27T02:14:46;97500.25;;;0.36;100.00
12146;BME280;6136;47.032;15.398;2023-01-27T02:17:16;97502.91;;;0.33;100.00
12146;BME280;6136;47.032;15.398;2023-01-27T02:19:50;97496.88;;;0.31;100.00
12146;BME280;6136;47.032;15.398;2023-01-27T02:22:25;97497.75;;;0.31;100.00
12146;BME280;6136;47.032;15.398;2023-01-27T02:25:02;97486.56;;;0.26;100.00
12146;BME280;6136;47.032;15.398;2023-01-27T02:27:35;97481.38;;;0.26;100.00
12146;BME280;6136;47.032;15.398;2023-01-27T02:30:04;97486.53;;;0.28;100.00
12146;BME280;6136;47.032;15.398;2023-01-27T02:32:32;97490.81;;;0.30;100.00
12146;BME280;6136;47.032;15.398;2023-01-27T02:35:01;97482.09;;;0.31;100.00
12146;BME280;6136;47.032;15.398;2023-01-27T02:37:30;97490.81;;;0.30;100.00
12146;BME280;6136;47.032;15.398;2023-01-27T02:40:01;97483.97;;;0.26;100.00
12146;BME280;6136;47.032;15.398;2023-01-27T02:42:30;97485.78;;;0.23;100.00
12146;BME280;6136;47.032;15.398;2023-01-27T02:44:59;97490.13;;;0.22;100.00
12146;BME280;6136;47.032;15.398;2023-01-27T02:47:27;97490.97;;;0.23;100.00
12146;BME280;6136;47.032;15.398;2023-01-27T02:49:56;97486.69;;;0.22;100.00
12146;BME280;6136;47.032;15.398;2023-01-27T02:52:24;97491.03;;;0.21;100.00
12146;BME280;6136;47.032;15.398;2023-01-27T02:54:53;97478.75;;;0.26;100.00
12146;BME280;6136;47.032;15.398;2023-01-27T02:57:21;97486.56;;;0.26;100.00
12146;BME280;6136;47.032;15.398;2023-01-27T03:00:11;97484.13;;;0.20;100.00
12146;BME280;6136;47.032;15.398;2023-01-27T03:02:40;97473.69;;;0.20;100.00
12146;BME280;6136;47.032;15.398;2023-01-27T03:05:08;97474.56;;;0.21;100.00
12146;BME280;6136;47.032;15.398;2023-01-27T03:07:37;97474.41;;;0.27;100.00
12146;BME280;6136;47.032;15.398;2023-01-27T03:10:06;97473.53;;;0.26;100.00
12146;BME280;6136;47.032;15.398;2023-01-27T03:12:34;97480.53;;;0.24;100.00
12146;BME280;6136;47.032;15.398;2023-01-27T03:15:03;97471.81;;;0.25;100.00
12146;BME280;6136;47.032;15.398;2023-01-27T03:17:50;97470.97;;;0.25;100.00
12146;BME280;6136;47.032;15.398;2023-01-27T03:20:38;97470.97;;;0.25;100.00
12146;BME280;6136;47.032;15.398;2023-01-27T03:23:07;97464.91;;;0.24;100.00
12146;BME280;6136;47.032;15.398;2023-01-27T03:25:39;97464.00;;;0.25;100.00
12146;BME280;6136;47.032;15.398;2023-01-27T03:28:08;97463.28;;;0.20;100.00
12146;BME280;6136;47.032;15.398;2023-01-27T03:30:44;97465.03;;;0.18;100.00
12146;BME280;6136;47.032;15.398;2023-01-27T03:33:19;97461.56;;;0.19;100.00
12146;BME280;6136;47.032;15.398;2023-01-27T03:35:53;97463.19;;;0.23;100.00
12146;BME280;6136;47.032;15.398;2023-01-27T03:38:48;97461.47;;;0.22;100.00
12146;BME280;6136;47.032;15.398;2023-01-27T03:41:33;97457.22;;;0.18;100.00
12146;BME280;6136;47.032;15.398;2023-01-27T03:44:20;97464.19;;;0.18;100.00
12146;BME280;6136;47.032;15.398;2023-01-27T03:47:06;97456.41;;;0.16;100.00
12146;BME280;6136;47.032;15.398;2023-01-27T03:49:35;97456.22;;;0.24;100.00
12146;BME280;6136;47.032;15.398;2023-01-27T03:52:04;97457.22;;;0.18;100.00
12146;BME280;6136;47.032;15.398;2023-01-27T03:54:32;97453.88;;;0.13;100.00
12146;BME280;6136;47.032;15.398;2023-01-27T03:57:00;97453.88;;;0.13;100.00
12146;BME280;6136;47.032;15.398;2023-01-27T03:59:32;97459.06;;;0.15;100.00
12146;BME280;6136;47.032;15.398;2023-01-27T04:02:01;97454.78;;;0.12;100.00
12146;BME280;6136;47.032;15.398;2023-01-27T04:04:48;97449.63;;;0.09;100.00
12146;BME280;6136;47.032;15.398;2023-01-27T04:07:34;97450.44;;;0.11;100.00
12146;BME280;6136;47.032;15.398;2023-01-27T04:10:05;97447.81;;;0.13;100.00
12146;BME280;6136;47.032;15.398;2023-01-27T04:12:33;97445.28;;;0.08;100.00
12146;BME280;6136;47.032;15.398;2023-01-27T04:15:01;97445.34;;;0.07;100.00
12146;BME280;6136;47.032;15.398;2023-01-27T04:17:29;97444.41;;;0.09;100.00
12146;BME280;6136;47.032;15.398;2023-01-27T04:20:07;97452.25;;;0.08;100.00
12146;BME280;6136;47.032;15.398;2023-01-27T04:22:35;97440.84;;;0.13;100.00
12146;BME280;6136;47.032;15.398;2023-01-27T04:25:04;97441.81;;;0.08;100.00
12146;BME280;6136;47.032;15.398;2023-01-27T04:27:34;97448.84;;;0.06;100.00
12146;BME280;6136;47.032;15.398;2023-01-27T04:30:02;97442.78;;;0.05;100.00
12146;BME280;6136;47.032;15.398;2023-01-27T04:32:31;97446.25;;;0.06;100.00
12146;BME280;6136;47.032;15.398;2023-01-27T04:34:59;97455.00;;;0.02;100.00
12146;BME280;6136;47.032;15.398;2023-01-27T04:37:29;97449.84;;;0.00;100.00
12146;BME280;6136;47.032;15.398;2023-01-27T04:39:57;97445.56;;;-0.03;100.00
12146;BME280;6136;47.032;15.398;2023-01-27T04:42:25;97447.25;;;0.00;100.00
12146;BME280;6136;47.032;15.398;2023-01-27T04:44:53;97455.06;;;0.00;100.00
12146;BME280;6136;47.032;15.398;2023-01-27T04:47:21;97455.13;;;-0.03;100.00
12146;BME280;6136;47.032;15.398;2023-01-27T04:49:49;97456.84;;;-0.02;100.00
12146;BME280;6136;47.032;15.398;2023-01-27T04:52:17;97462.09;;;-0.05;100.00
12146;BME280;6136;47.032;15.398;2023-01-27T04:54:49;97456.13;;;-0.09;100.00
12146;BME280;6136;47.032;15.398;2023-01-27T04:57:17;97456.06;;;-0.07;100.00
12146;BME280;6136;47.032;15.398;2023-01-27T04:59:45;97449.97;;;-0.06;100.00
12146;BME280;6136;47.032;15.398;2023-01-27T05:02:15;97455.25;;;-0.09;100.00
12146;BME280;6136;47.032;15.398;2023-01-27T05:04:43;97461.19;;;-0.03;100.00
12146;BME280;6136;47.032;15.398;2023-01-27T05:07:11;97457.75;;;-0.05;100.00
12146;BME280;6136;47.032;15.398;2023-01-27T05:09:40;97455.97;;;-0.03;100.00
12146;BME280;6136;47.032;15.398;2023-01-27T05:12:09;97456.84;;;-0.02;100.00
12146;BME280;6136;47.032;15.398;2023-01-27T05:14:37;97455.06;;;0.00;100.00
12146;BME280;6136;47.032;15.398;2023-01-27T05:17:05;97458.53;;;-0.01;100.00
12146;BME280;6136;47.032;15.398;2023-01-27T05:19:34;97456.88;;;-0.05;100.00
12146;BME280;6136;47.032;15.398;2023-01-27T05:22:02;97458.59;;;-0.04;100.00
12146;BME280;6136;47.032;15.398;2023-01-27T05:24:31;97449.19;;;-0.10;100.00
12146;BME280;6136;47.032;15.398;2023-01-27T05:26:59;97468.13;;;-0.03;100.00
12146;BME280;6136;47.032;15.398;2023-01-27T05:29:28;97469.00;;;-0.03;100.00
12146;BME280;6136;47.032;15.398;2023-01-27T05:31:57;97463.81;;;-0.04;100.00
12146;BME280;6136;47.032;15.398;2023-01-27T05:34:25;97474.19;;;-0.01;100.00
12146;BME280;6136;47.032;15.398;2023-01-27T05:36:53;97477.66;;;-0.02;100.00
12146;BME280;6136;47.032;15.398;2023-01-27T05:39:21;97474.25;;;-0.06;100.00
12146;BME280;6136;47.032;15.398;2023-01-27T05:41:49;97471.75;;;-0.09;100.00
12146;BME280;6136;47.032;15.398;2023-01-27T05:44:18;97479.44;;;-0.04;100.00
12146;BME280;6136;47.032;15.398;2023-01-27T05:46:47;97489.09;;;-0.08;100.00
12146;BME280;6136;47.032;15.398;2023-01-27T05:49:15;97478.69;;;-0.09;100.00
12146;BME280;6136;47.032;15.398;2023-01-27T05:51:44;97473.38;;;-0.05;100.00
12146;BME280;6136;47.032;15.398;2023-01-27T05:54:12;97478.59;;;-0.05;100.00
12146;BME280;6136;47.032;15.398;2023-01-27T05:56:40;97479.47;;;-0.06;100.00
12146;BME280;6136;47.032;15.398;2023-01-27T05:59:09;97481.22;;;-0.06;100.00
12146;BME280;6136;47.032;15.398;2023-01-27T06:01:37;97476.09;;;-0.09;100.00
12146;BME280;6136;47.032;15.398;2023-01-27T06:04:08;97483.00;;;-0.08;100.00
12146;BME280;6136;47.032;15.398;2023-01-27T06:06:36;97482.09;;;-0.07;100.00
12146;BME280;6136;47.032;15.398;2023-01-27T06:09:04;97476.13;;;-0.12;100.00
12146;BME280;6136;47.032;15.398;2023-01-27T06:11:32;97468.25;;;-0.08;100.00
12146;BME280;6136;47.032;15.398;2023-01-27T06:14:01;97477.81;;;-0.08;100.00
12146;BME280;6136;47.032;15.398;2023-01-27T06:16:29;97475.13;;;-0.07;100.00
12146;BME280;6136;47.032;15.398;2023-01-27T06:18:57;97476.00;;;-0.06;100.00
12146;BME280;6136;47.032;15.398;2023-01-27T06:21:26;97486.41;;;-0.06;100.00
12146;BME280;6136;47.032;15.398;2023-01-27T06:23:55;97487.31;;;-0.07;100.00
12146;BME280;6136;47.032;15.398;2023-01-27T06:26:24;97483.91;;;-0.09;100.00
12146;BME280;6136;47.032;15.398;2023-01-27T06:28:52;97474.28;;;-0.07;100.00
12146;BME280;6136;47.032;15.398;2023-01-27T06:31:22;97482.19;;;-0.10;100.00
12146;BME280;6136;47.032;15.398;2023-01-27T06:33:50;97481.19;;;-0.05;100.00
12146;BME280;6136;47.032;15.398;2023-01-27T06:36:20;97482.06;;;-0.06;100.00
12146;BME280;6136;47.032;15.398;2023-01-27T06:38:50;97479.44;;;-0.04;100.00
12146;BME280;6136;47.032;15.398;2023-01-27T06:41:18;97483.72;;;0.00;100.00
12146;BME280;6136;47.032;15.398;2023-01-27T06:43:46;97474.19;;;-0.01;100.00
12146;BME280;6136;47.032;15.398;2023-01-27T06:46:14;97477.59;;;0.01;100.00
12146;BME280;6136;47.032;15.398;2023-01-27T06:48:43;97464.63;;;-0.01;100.00
12146;BME280;6136;47.032;15.398;2023-01-27T06:51:11;97476.72;;;0.00;100.00
12146;BME280;6136;47.032;15.398;2023-01-27T06:53:40;97482.75;;;0.04;100.00
12146;BME280;6136;47.032;15.398;2023-01-27T06:56:09;97476.66;;;0.04;100.00
12146;BME280;6136;47.032;15.398;2023-01-27T06:58:37;97483.75;;;-0.02;100.00
12146;BME280;6136;47.032;15.398;2023-01-27T07:01:05;97478.53;;;-0.02;100.00
12146;BME280;6136;47.032;15.398;2023-01-27T07:03:34;97479.28;;;0.04;100.00
12146;BME280;6136;47.032;15.398;2023-01-27T07:06:03;97485.50;;;-0.04;100.00
12146;BME280;6136;47.032;15.398;2023-01-27T07:08:31;97481.09;;;0.00;100.00
12146;BME280;6136;47.032;15.398;2023-01-27T07:11:01;97484.50;;;0.02;100.00
12146;BME280;6136;47.032;15.398;2023-01-27T07:13:31;97480.34;;;-0.07;100.00
12146;BME280;6136;47.032;15.398;2023-01-27T07:15:59;97488.84;;;0.03;100.00
12146;BME280;6136;47.032;15.398;2023-01-27T07:18:28;97490.50;;;0.07;100.00
12146;BME280;6136;47.032;15.398;2023-01-27T07:20:56;97492.31;;;0.02;100.00
12146;BME280;6136;47.032;15.398;2023-01-27T07:23:24;97488.66;;;0.11;100.00
12146;BME280;6136;47.032;15.398;2023-01-27T07:25:53;97494.69;;;0.14;100.00
12146;BME280;6136;47.032;15.398;2023-01-27T07:28:21;97502.41;;;0.17;100.00
12146;BME280;6136;47.032;15.398;2023-01-27T07:30:50;97492.72;;;0.22;100.00
12146;BME280;6136;47.032;15.398;2023-01-27T07:33:18;97494.44;;;0.23;100.00
12146;BME280;6136;47.032;15.398;2023-01-27T07:35:47;97507.38;;;0.29;100.00
12146;BME280;6136;47.032;15.398;2023-01-27T07:38:16;97506.53;;;0.27;100.00
12146;BME280;6136;47.032;15.398;2023-01-27T07:40:44;97501.31;;;0.27;100.00
12146;BME280;6136;47.032;15.398;2023-01-27T07:43:12;97506.53;;;0.27;100.00
12146;BME280;6136;47.032;15.398;2023-01-27T07:45:40;97505.66;;;0.28;100.00
12146;BME280;6136;47.032;15.398;2023-01-27T07:48:10;97498.88;;;0.21;100.00
12146;BME280;6136;47.032;15.398;2023-01-27T07:50:39;97503.25;;;0.19;100.00
12146;BME280;6136;47.032;15.398;2023-01-27T07:53:09;97506.44;;;0.30;100.00
12146;BME280;6136;47.032;15.398;2023-01-27T07:55:38;97519.28;;;0.39;100.00
12146;BME280;6136;47.032;15.398;2023-01-27T07:58:06;97513.19;;;0.41;100.00
12146;BME280;6136;47.032;15.398;2023-01-27T08:00:35;97511.41;;;0.43;100.00
12146;BME280;6136;47.032;15.398;2023-01-27T08:03:03;97515.63;;;0.47;100.00
12146;BME280;6136;47.032;15.398;2023-01-27T08:05:34;97513.84;;;0.49;100.00
12146;BME280;6136;47.032;15.398;2023-01-27T08:08:04;97523.25;;;0.56;100.00
12146;BME280;6136;47.032;15.398;2023-01-27T08:10:32;97523.91;;;0.65;100.00
12146;BME280;6136;47.032;15.398;2023-01-27T08:13:00;97520.44;;;0.65;100.00
12146;BME280;6136;47.032;15.398;2023-01-27T08:15:29;97524.66;;;0.69;100.00
12146;BME280;6136;47.032;15.398;2023-01-27T08:17:57;97529.03;;;0.68;100.00
12146;BME280;6136;47.032;15.398;2023-01-27T08:20:26;97523.84;;;0.67;100.00
12146;BME280;6136;47.032;15.398;2023-01-27T08:22:56;97525.78;;;0.59;100.00
12146;BME280;6136;47.032;15.398;2023-01-27T08:25:24;97532.41;;;0.73;100.00
12146;BME280;6136;47.032;15.398;2023-01-27T08:27:54;97534.09;;;0.74;100.00
12146;BME280;6136;47.032;15.398;2023-01-27T08:30:23;97534.22;;;0.70;100.00
12146;BME280;6136;47.032;15.398;2023-01-27T08:32:51;97536.84;;;0.68;100.00
12146;BME280;6136;47.032;15.398;2023-01-27T08:35:19;97541.59;;;0.88;100.00
12146;BME280;6136;47.032;15.398;2023-01-27T08:37:47;97539.78;;;0.90;100.00
12146;BME280;6136;47.032;15.398;2023-01-27T08:40:17;97535.28;;;0.97;100.00
12146;BME280;6136;47.032;15.398;2023-01-27T08:42:45;97544.94;;;0.93;100.00
12146;BME280;6136;47.032;15.398;2023-01-27T08:45:16;97547.03;;;0.79;100.00
12146;BME280;6136;47.032;15.398;2023-01-27T08:47:44;97546.22;;;0.77;100.00
12146;BME280;6136;47.032;15.398;2023-01-27T08:50:12;97545.38;;;0.75;100.00
12146;BME280;6136;47.032;15.398;2023-01-27T08:52:41;97539.44;;;0.68;100.00
12146;BME280;6136;47.032;15.398;2023-01-27T08:55:09;97538.59;;;0.68;100.00
12146;BME280;6136;47.032;15.398;2023-01-27T08:57:39;97534.47;;;0.59;100.00
12146;BME280;6136;47.032;15.398;2023-01-27T09:00:09;97541.19;;;0.68;100.00
12146;BME280;6136;47.032;15.398;2023-01-27T09:02:38;97535.78;;;0.77;100.00
12146;BME280;6136;47.032;15.398;2023-01-27T09:05:07;97554.19;;;0.71;100.00
12146;BME280;6136;47.032;15.398;2023-01-27T09:07:35;97550.88;;;0.63;100.00
12146;BME280;6136;47.032;15.398;2023-01-27T09:10:04;97548.41;;;0.58;100.00
12146;BME280;6136;47.032;15.398;2023-01-27T09:12:42;97558.72;;;0.63;100.00
12146;BME280;6136;47.032;15.398;2023-01-27T09:15:11;97565.75;;;0.59;100.00
12146;BME280;6136;47.032;15.398;2023-01-27T09:17:40;97557.25;;;0.51;100.00
12146;BME280;6136;47.032;15.398;2023-01-27T09:20:09;97556.44;;;0.48;100.00
12146;BME280;6136;47.032;15.398;2023-01-27T09:22:39;97572.75;;;0.57;100.00
12146;BME280;6136;47.032;15.398;2023-01-27T09:25:15;97571.94;;;0.54;100.00
12146;BME280;6136;47.032;15.398;2023-01-27T09:27:45;97579.59;;;0.61;100.00
12146;BME280;6136;47.032;15.398;2023-01-27T09:30:14;97569.16;;;0.63;100.00
12146;BME280;6136;47.032;15.398;2023-01-27T09:32:43;97584.09;;;0.55;100.00
12146;BME280;6136;47.032;15.398;2023-01-27T09:35:11;97583.03;;;0.63;100.00
12146;BME280;6136;47.032;15.398;2023-01-27T09:37:43;97580.56;;;0.59;100.00
12146;BME280;6136;47.032;15.398;2023-01-27T09:40:23;97582.47;;;0.51;100.00
12146;BME280;6136;47.032;15.398;2023-01-27T09:49:09;97571.38;;;0.41;100.00
12146;BME280;6136;47.032;15.398;2023-01-27T09:51:46;97569.53;;;0.45;100.00
12146;BME280;6136;47.032;15.398;2023-01-27T09:54:31;97565.69;;;0.62;100.00
12146;BME280;6136;47.032;15.398;2023-01-27T09:57:09;97570.00;;;0.63;100.00
12146;BME280;6136;47.032;15.398;2023-01-27T09:59:56;97565.47;;;0.71;100.00
12146;BME280;6136;47.032;15.398;2023-01-27T10:02:50;97568.06;;;0.73;100.00
12146;BME280;6136;47.032;15.398;2023-01-27T10:05:41;97566.19;;;0.78;100.00
12146;BME280;6136;47.032;15.398;2023-01-27T10:08:32;97558.47;;;0.73;100.00
12146;BME280;6136;47.032;15.398;2023-01-27T10:11:18;97557.78;;;0.65;100.00
12146;BME280;6136;47.032;15.398;2023-01-27T10:14:03;97543.78;;;0.69;100.00
12146;BME280;6136;47.032;15.398;2023-01-27T10:16:53;97545.97;;;0.88;100.00
12146;BME280;6136;47.032;15.398;2023-01-27T10:19:39;97545.44;;;1.09;100.00
12146;BME280;6136;47.032;15.398;2023-01-27T10:22:17;97533.50;;;1.33;100.00
12146;BME280;6136;47.032;15.398;2023-01-27T10:24:56;97531.22;;;1.53;100.00
12146;BME280;6136;47.032;15.398;2023-01-27T10:27:33;97531.81;;;1.93;100.00
12146;BME280;6136;47.032;15.398;2023-01-27T10:30:07;97530.66;;;2.33;100.00
12146;BME280;6136;47.032;15.398;2023-01-27T10:32:43;97527.16;;;2.60;100.00
12146;BME280;6136;47.032;15.398;2023-01-27T10:35:15;97528.06;;;2.02;100.00
12146;BME280;6136;47.032;15.398;2023-01-27T10:37:53;97519.44;;;2.57;100.00
12146;BME280;6136;47.032;15.398;2023-01-27T10:40:32;97518.44;;;3.14;100.00
12146;BME280;6136;47.032;15.398;2023-01-27T10:43:05;97512.75;;;3.53;96.21
12146;BME280;6136;47.032;15.398;2023-01-27T10:45:41;97507.19;;;3.62;95.20
12146;BME280;6136;47.032;15.398;2023-01-27T10:48:24;97503.41;;;3.45;95.48
12146;BME280;6136;47.032;15.398;2023-01-27T10:50:56;97506.03;;;3.45;97.39
12146;BME280;6136;47.032;15.398;2023-01-27T10:53:30;97505.75;;;3.28;99.55
12146;BME280;6136;47.032;15.398;2023-01-27T10:56:04;97494.38;;;3.29;100.00
12146;BME280;6136;47.032;15.398;2023-01-27T10:58:47;97504.41;;;3.41;100.00
12146;BME280;6136;47.032;15.398;2023-01-27T11:01:19;97499.38;;;3.35;97.88
12146;BME280;6136;47.032;15.398;2023-01-27T11:03:56;97494.78;;;3.17;98.01
12146;BME280;6136;47.032;15.398;2023-01-27T11:06:30;97494.38;;;3.29;94.17
12146;BME280;6136;47.032;15.398;2023-01-27T11:09:06;97493.84;;;3.44;94.50
12146;BME280;6136;47.032;15.398;2023-01-27T11:11:35;97485.16;;;3.42;95.37
12146;BME280;6136;47.032;15.398;2023-01-27T11:14:25;97488.06;;;2.84;99.19
12146;BME280;6136;47.032;15.398;2023-01-27T11:16:59;97485.44;;;2.57;100.00
12146;BME280;6136;47.032;15.398;2023-01-27T11:19:39;97483.75;;;2.55;100.00
12146;BME280;6136;47.032;15.398;2023-01-27T11:22:17;97486.69;;;2.72;100.00
12146;BME280;6136;47.032;15.398;2023-01-27T11:24:51;97480.00;;;3.16;96.38
12146;BME280;6136;47.032;15.398;2023-01-27T11:27:31;97477.97;;;2.98;98.71
12146;BME280;6136;47.032;15.398;2023-01-27T11:30:08;97479.09;;;3.17;95.48
12146;BME280;6136;47.032;15.398;2023-01-27T11:32:47;97471.31;;;3.14;95.74
12146;BME280;6136;47.032;15.398;2023-01-27T11:35:21;97468.16;;;3.04;95.42
12146;BME280;6136;47.032;15.398;2023-01-27T11:37:50;97470.47;;;2.89;95.41
12146;BME280;6136;47.032;15.398;2023-01-27T11:40:31;97465.22;;;2.89;96.39
12146;BME280;6136;47.032;15.398;2023-01-27T11:43:01;97472.97;;;2.92;97.35
12146;BME280;6136;47.032;15.398;2023-01-27T11:45:33;97469.03;;;2.79;99.68
12146;BME280;6136;47.032;15.398;2023-01-27T11:48:06;97461.03;;;2.83;99.50
12146;BME280;6136;47.032;15.398;2023-01-27T11:50:36;97457.31;;;2.64;99.75
12146;BME280;6136;47.032;15.398;2023-01-27T11:53:11;97456.34;;;2.40;100.00
12146;BME280;6136;47.032;15.398;2023-01-27T11:55:42;97450.41;;;2.35;100.00
12146;BME280;6136;47.032;15.398;2023-01-27T11:58:18;97455.91;;;2.26;100.00
12146;BME280;6136;47.032;15.398;2023-01-27T12:00:53;97449.63;;;2.31;100.00
12146;BME280;6136;47.032;15.398;2023-01-27T12:03:29;97456.69;;;2.29;100.00
12146;BME280;6136;47.032;15.398;2023-01-27T12:06:13;97455.84;;;2.29;100.00
12146;BME280;6136;47.032;15.398;2023-01-27T12:08:44;97457.06;;;2.17;100.00
12146;BME280;6136;47.032;15.398;2023-01-27T12:11:18;97453.34;;;2.24;100.00
12146;BME280;6136;47.032;15.398;2023-01-27T12:13:48;97447.25;;;2.24;100.00
12146;BME280;6136;47.032;15.398;2023-01-27T12:16:16;97445.75;;;2.17;100.00
12146;BME280;6136;47.032;15.398;2023-01-27T12:18:51;97446.06;;;2.34;100.00
12146;BME280;6136;47.032;15.398;2023-01-27T12:21:33;97445.69;;;2.18;100.00
12146;BME280;6136;47.032;15.398;2023-01-27T12:24:03;97447.38;;;2.21;100.00
12146;BME280;6136;47.032;15.398;2023-01-27T12:26:35;97437.81;;;2.20;100.00
12146;BME280;6136;47.032;15.398;2023-01-27T12:29:06;97431.16;;;2.10;100.00
12146;BME280;6136;47.032;15.398;2023-01-27T12:31:45;97435.75;;;2.02;100.00
12146;BME280;6136;47.032;15.398;2023-01-27T12:34:24;97433.75;;;2.10;100.00
12146;BME280;6136;47.032;15.398;2023-01-27T12:36:57;97430.63;;;1.99;100.00
12146;BME280;6136;47.032;15.398;2023-01-27T12:39:31;97427.22;;;1.97;100.00
12146;BME280;6136;47.032;15.398;2023-01-27T12:42:02;97428.06;;;1.97;100.00
12146;BME280;6136;47.032;15.398;2023-01-27T12:44:40;97428.47;;;2.13;100.00
12146;BME280;6136;47.032;15.398;2023-01-27T12:47:22;97426.94;;;2.06;100.00
12146;BME280;6136;47.032;15.398;2023-01-27T12:50:16;97423.47;;;2.05;100.00
12146;BME280;6136;47.032;15.398;2023-01-27T12:55:38;97419.22;;;2.01;100.00
12146;BME280;6136;47.032;15.398;2023-01-27T12:58:27;97424.75;;;1.92;100.00
12146;BME280;6136;47.032;15.398;2023-01-27T13:00:57;97421.91;;;2.00;100.00
12146;BME280;6136;47.032;15.398;2023-01-27T13:03:27;97424.78;;;1.90;100.00
12146;BME280;6136;47.032;15.398;2023-01-27T13:05:58;97423.44;;;2.07;100.00
12146;BME280;6136;47.032;15.398;2023-01-27T13:08:31;97422.59;;;2.05;100.00
12146;BME280;6136;47.032;15.398;2023-01-27T13:11:01;97418.56;;;1.94;100.00
12146;BME280;6136;47.032;15.398;2023-01-27T13:13:30;97419.28;;;2.00;100.00
12146;BME280;6136;47.032;15.398;2023-01-27T13:16:04;97421.78;;;2.03;100.00
12146;BME280;6136;47.032;15.398;2023-01-27T13:18:34;97418.56;;;1.94;100.00
12146;BME280;6136;47.032;15.398;2023-01-27T13:21:12;97405.91;;;1.81;100.00
12146;BME280;6136;47.032;15.398;2023-01-27T13:23:42;97416.06;;;1.91;100.00
12146;BME280;6136;47.032;15.398;2023-01-27T13:26:16;97408.88;;;1.98;100.00
12146;BME280;6136;47.032;15.398;2023-01-27T13:28:51;97406.78;;;2.09;100.00
12146;BME280;6136;47.032;15.398;2023-01-27T13:31:32;97413.72;;;2.10;100.00
12146;BME280;6136;47.032;15.398;2023-01-27T13:34:09;97414.59;;;1.81;100.00